CES1213 ZPPP-ZPDL
Flight info
| Callsign | CES1213 |
|---|---|
| Flight time | 0h 32m |
| Altitude | 23600 |
| Route | SGM H90 P73 UPGE56 |
| Aircraft | B737/M-SDE2E3FGHIRWXY/LB1 |
Departure
| Time | 2026-05-08 07:21 |
|---|---|
| Airport | Kunming Changshui International Airport (ZPPP) |
Arrival
| Time | 2026-05-08 07:54 |
|---|---|
| Airport | Dali Fengyi Airport (ZPDL) |
| Time | Latitude | Longitude | Altitude | Speed | Heading |
|---|---|---|---|---|---|
| 2026-05-08 07:17 | 25.12607 | 102.94251 | 6911 ft | 0 kts | 308° |
| 2026-05-08 07:19 | 25.12652 | 102.94194 | 6911 ft | 14 kts | 345° |
| 2026-05-08 07:19 | 25.12749 | 102.94217 | 6911 ft | 13 kts | 344° |
| 2026-05-08 07:20 | 25.12806 | 102.94139 | 6911 ft | 12 kts | 307° |
| 2026-05-08 07:20 | 25.12858 | 102.94064 | 6911 ft | 12 kts | 307° |
| 2026-05-08 07:20 | 25.12844 | 102.93981 | 6911 ft | 14 kts | 217° |
| 2026-05-08 07:20 | 25.12727 | 102.93882 | 6911 ft | 44 kts | 219° |
| 2026-05-08 07:21 | 25.12240 | 102.93453 | 6912 ft | 132 kts | 217° |
| 2026-05-08 07:21 | 25.11313 | 102.92657 | 6956 ft | 198 kts | 218° |
| 2026-05-08 07:21 | 25.10162 | 102.91662 | 7596 ft | 220 kts | 219° |
| 2026-05-08 07:21 | 25.09173 | 102.90520 | 8906 ft | 210 kts | 240° |
| 2026-05-08 07:22 | 25.08856 | 102.88992 | 9824 ft | 214 kts | 270° |
| 2026-05-08 07:22 | 25.08974 | 102.87347 | 10551 ft | 226 kts | 272° |
| 2026-05-08 07:22 | 25.09033 | 102.85568 | 11286 ft | 239 kts | 269° |
| 2026-05-08 07:22 | 25.09010 | 102.83691 | 12010 ft | 252 kts | 267° |
| 2026-05-08 07:23 | 25.08956 | 102.81746 | 12766 ft | 263 kts | 267° |
| 2026-05-08 07:23 | 25.08899 | 102.79726 | 13821 ft | 266 kts | 268° |
| 2026-05-08 07:23 | 25.08844 | 102.77693 | 14723 ft | 275 kts | 268° |
| 2026-05-08 07:23 | 25.08787 | 102.75529 | 15498 ft | 290 kts | 268° |
| 2026-05-08 07:24 | 25.08730 | 102.73281 | 16249 ft | 305 kts | 268° |
| 2026-05-08 07:24 | 25.08669 | 102.70891 | 16957 ft | 320 kts | 268° |
| 2026-05-08 07:24 | 25.08606 | 102.68430 | 17656 ft | 333 kts | 268° |
| 2026-05-08 07:24 | 25.08536 | 102.65831 | 18302 ft | 348 kts | 268° |
| 2026-05-08 07:25 | 25.08461 | 102.63111 | 18891 ft | 363 kts | 268° |
| 2026-05-08 07:25 | 25.08384 | 102.60276 | 19455 ft | 377 kts | 268° |
| 2026-05-08 07:25 | 25.08225 | 102.54338 | 20739 ft | 397 kts | 267° |
| 2026-05-08 07:26 | 25.08142 | 102.51292 | 21582 ft | 400 kts | 267° |
| 2026-05-08 07:26 | 25.08024 | 102.48243 | 22363 ft | 404 kts | 266° |
| 2026-05-08 07:26 | 25.07872 | 102.45147 | 23226 ft | 406 kts | 266° |
| 2026-05-08 07:26 | 25.07708 | 102.42052 | 23731 ft | 411 kts | 265° |
| 2026-05-08 07:27 | 25.07536 | 102.38903 | 23848 ft | 411 kts | 265° |
| 2026-05-08 07:27 | 25.07365 | 102.35769 | 23855 ft | 411 kts | 265° |
| 2026-05-08 07:27 | 25.07192 | 102.32611 | 23855 ft | 412 kts | 265° |
| 2026-05-08 07:27 | 25.07022 | 102.29482 | 23855 ft | 410 kts | 265° |
| 2026-05-08 07:28 | 25.06854 | 102.26354 | 23841 ft | 410 kts | 265° |
| 2026-05-08 07:28 | 25.06686 | 102.23222 | 23828 ft | 411 kts | 265° |
| 2026-05-08 07:28 | 25.06518 | 102.20077 | 23824 ft | 410 kts | 265° |
| 2026-05-08 07:28 | 25.06350 | 102.16936 | 23821 ft | 410 kts | 265° |
| 2026-05-08 07:29 | 25.06181 | 102.13805 | 23819 ft | 412 kts | 265° |
| 2026-05-08 07:29 | 25.06012 | 102.10654 | 23813 ft | 413 kts | 265° |
| 2026-05-08 07:29 | 25.05842 | 102.07503 | 23809 ft | 411 kts | 265° |
| 2026-05-08 07:29 | 25.05672 | 102.04373 | 23803 ft | 412 kts | 265° |
| 2026-05-08 07:30 | 25.05500 | 102.01241 | 23794 ft | 410 kts | 265° |
| 2026-05-08 07:30 | 25.05327 | 101.98120 | 23787 ft | 409 kts | 265° |
| 2026-05-08 07:30 | 25.05154 | 101.94974 | 23796 ft | 410 kts | 265° |
| 2026-05-08 07:30 | 25.04983 | 101.91850 | 23801 ft | 410 kts | 265° |
| 2026-05-08 07:31 | 25.04811 | 101.88727 | 23801 ft | 410 kts | 265° |
| 2026-05-08 07:31 | 25.04637 | 101.85585 | 23810 ft | 411 kts | 265° |
| 2026-05-08 07:31 | 25.04463 | 101.82461 | 23813 ft | 411 kts | 265° |
| 2026-05-08 07:31 | 25.04287 | 101.79316 | 23815 ft | 410 kts | 265° |
| 2026-05-08 07:32 | 25.04112 | 101.76196 | 23820 ft | 411 kts | 265° |
| 2026-05-08 07:32 | 25.03936 | 101.73071 | 23823 ft | 409 kts | 265° |
| 2026-05-08 07:32 | 25.03759 | 101.69929 | 23822 ft | 411 kts | 265° |
| 2026-05-08 07:32 | 25.03580 | 101.66771 | 23829 ft | 411 kts | 265° |
| 2026-05-08 07:33 | 25.03402 | 101.63652 | 23831 ft | 409 kts | 265° |
| 2026-05-08 07:33 | 25.03224 | 101.60535 | 23836 ft | 411 kts | 265° |
| 2026-05-08 07:33 | 25.03045 | 101.57393 | 23835 ft | 410 kts | 265° |
| 2026-05-08 07:33 | 25.02908 | 101.54271 | 23847 ft | 411 kts | 267° |
| 2026-05-08 07:34 | 25.02955 | 101.51141 | 23853 ft | 410 kts | 271° |
| 2026-05-08 07:34 | 25.03156 | 101.47966 | 23854 ft | 413 kts | 272° |
| 2026-05-08 07:34 | 25.03427 | 101.44827 | 23860 ft | 413 kts | 274° |
| 2026-05-08 07:34 | 25.03724 | 101.41711 | 23861 ft | 412 kts | 274° |
| 2026-05-08 07:35 | 25.04030 | 101.38575 | 23855 ft | 411 kts | 274° |
| 2026-05-08 07:35 | 25.04333 | 101.35435 | 23856 ft | 412 kts | 274° |
| 2026-05-08 07:35 | 25.04634 | 101.32308 | 23861 ft | 413 kts | 273° |
| 2026-05-08 07:35 | 25.04931 | 101.29162 | 23864 ft | 413 kts | 273° |
| 2026-05-08 07:36 | 25.05223 | 101.26015 | 23867 ft | 412 kts | 273° |
| 2026-05-08 07:36 | 25.05511 | 101.22862 | 23873 ft | 412 kts | 272° |
| 2026-05-08 07:36 | 25.05793 | 101.19730 | 23884 ft | 413 kts | 273° |
| 2026-05-08 07:36 | 25.06071 | 101.16618 | 23895 ft | 414 kts | 273° |
| 2026-05-08 07:37 | 25.06351 | 101.13457 | 23900 ft | 411 kts | 273° |
| 2026-05-08 07:37 | 25.06625 | 101.10317 | 23908 ft | 412 kts | 274° |
| 2026-05-08 07:37 | 25.06900 | 101.07172 | 23916 ft | 412 kts | 273° |
| 2026-05-08 07:37 | 25.07174 | 101.04057 | 23928 ft | 413 kts | 273° |
| 2026-05-08 07:38 | 25.07451 | 101.00913 | 23939 ft | 412 kts | 273° |
| 2026-05-08 07:38 | 25.07728 | 100.97774 | 23944 ft | 411 kts | 273° |
| 2026-05-08 07:38 | 25.08001 | 100.94628 | 23937 ft | 411 kts | 273° |
| 2026-05-08 07:38 | 25.08272 | 100.91505 | 23927 ft | 411 kts | 273° |
| 2026-05-08 07:39 | 25.08545 | 100.88350 | 23912 ft | 411 kts | 273° |
| 2026-05-08 07:39 | 25.08815 | 100.85230 | 23896 ft | 412 kts | 273° |
| 2026-05-08 07:39 | 25.09091 | 100.82089 | 23881 ft | 410 kts | 273° |
| 2026-05-08 07:39 | 25.09360 | 100.78973 | 23867 ft | 412 kts | 273° |
| 2026-05-08 07:40 | 25.09630 | 100.75836 | 23852 ft | 412 kts | 273° |
| 2026-05-08 07:40 | 25.09904 | 100.72669 | 23838 ft | 413 kts | 272° |
| 2026-05-08 07:40 | 25.10171 | 100.69553 | 23837 ft | 412 kts | 273° |
| 2026-05-08 07:40 | 25.10442 | 100.66401 | 23837 ft | 411 kts | 273° |
| 2026-05-08 07:41 | 25.10709 | 100.63274 | 23835 ft | 413 kts | 273° |
| 2026-05-08 07:41 | 25.10978 | 100.60130 | 23842 ft | 412 kts | 272° |
| 2026-05-08 07:41 | 25.11247 | 100.56977 | 23844 ft | 411 kts | 273° |
| 2026-05-08 07:41 | 25.11513 | 100.53841 | 23844 ft | 413 kts | 273° |
| 2026-05-08 07:42 | 25.11776 | 100.50706 | 23846 ft | 415 kts | 273° |
| 2026-05-08 07:42 | 25.12127 | 100.47555 | 23851 ft | 413 kts | 276° |
| 2026-05-08 07:42 | 25.12828 | 100.44471 | 23852 ft | 420 kts | 285° |
| 2026-05-08 07:42 | 25.14001 | 100.41506 | 23857 ft | 425 kts | 293° |
| 2026-05-08 07:43 | 25.15574 | 100.38704 | 23855 ft | 429 kts | 300° |
| 2026-05-08 07:43 | 25.17381 | 100.36103 | 23757 ft | 428 kts | 305° |
| 2026-05-08 07:43 | 25.19461 | 100.33812 | 23328 ft | 425 kts | 314° |
| 2026-05-08 07:43 | 25.21938 | 100.31882 | 22668 ft | 438 kts | 323° |
| 2026-05-08 07:44 | 25.24672 | 100.30383 | 22129 ft | 439 kts | 331° |
| 2026-05-08 07:44 | 25.27528 | 100.29205 | 21546 ft | 437 kts | 336° |
| 2026-05-08 07:44 | 25.30460 | 100.28451 | 20888 ft | 437 kts | 346° |
| 2026-05-08 07:44 | 25.33497 | 100.28265 | 20195 ft | 437 kts | 355° |
| 2026-05-08 07:45 | 25.36539 | 100.28468 | 19481 ft | 434 kts | 0° |
| 2026-05-08 07:45 | 25.39520 | 100.28835 | 18770 ft | 430 kts | 2° |
| 2026-05-08 07:45 | 25.42469 | 100.29278 | 18058 ft | 425 kts | 3° |
| 2026-05-08 07:45 | 25.45357 | 100.29736 | 17358 ft | 420 kts | 4° |
| 2026-05-08 07:46 | 25.48255 | 100.30189 | 16654 ft | 414 kts | 4° |
| 2026-05-08 07:46 | 25.51072 | 100.30614 | 15959 ft | 409 kts | 4° |
| 2026-05-08 07:46 | 25.53854 | 100.31018 | 15293 ft | 403 kts | 4° |
| 2026-05-08 07:46 | 25.56608 | 100.31404 | 14781 ft | 393 kts | 4° |
| 2026-05-08 07:47 | 25.59287 | 100.31773 | 14598 ft | 374 kts | 4° |
| 2026-05-08 07:47 | 25.61814 | 100.32118 | 14487 ft | 356 kts | 4° |
| 2026-05-08 07:47 | 25.64195 | 100.32512 | 14338 ft | 342 kts | 7° |
| 2026-05-08 07:47 | 25.66471 | 100.33117 | 14186 ft | 331 kts | 13° |
| 2026-05-08 07:48 | 25.68659 | 100.33884 | 14030 ft | 319 kts | 16° |
| 2026-05-08 07:48 | 25.70715 | 100.34673 | 13881 ft | 309 kts | 17° |
| 2026-05-08 07:48 | 25.72725 | 100.35455 | 13733 ft | 299 kts | 17° |
| 2026-05-08 07:48 | 25.74659 | 100.36193 | 13597 ft | 289 kts | 16° |
| 2026-05-08 07:49 | 25.76532 | 100.36893 | 13447 ft | 280 kts | 15° |
| 2026-05-08 07:49 | 25.78385 | 100.37408 | 13312 ft | 268 kts | 4° |
| 2026-05-08 07:49 | 25.80177 | 100.37259 | 13184 ft | 252 kts | 335° |
| 2026-05-08 07:49 | 25.81576 | 100.36222 | 12895 ft | 245 kts | 309° |
| 2026-05-08 07:50 | 25.82500 | 100.34625 | 12480 ft | 246 kts | 292° |
| 2026-05-08 07:50 | 25.83067 | 100.32845 | 12166 ft | 243 kts | 275° |
| 2026-05-08 07:50 | 25.82819 | 100.31051 | 12020 ft | 237 kts | 242° |
| 2026-05-08 07:50 | 25.81775 | 100.29638 | 11836 ft | 243 kts | 220° |
| 2026-05-08 07:51 | 25.80300 | 100.28708 | 11414 ft | 251 kts | 197° |
| 2026-05-08 07:51 | 25.78533 | 100.28628 | 10942 ft | 260 kts | 173° |
| 2026-05-08 07:51 | 25.76742 | 100.29057 | 10291 ft | 274 kts | 167° |
| 2026-05-08 07:51 | 25.74836 | 100.29592 | 9564 ft | 287 kts | 168° |
| 2026-05-08 07:52 | 25.72885 | 100.30087 | 9059 ft | 289 kts | 168° |
| 2026-05-08 07:52 | 25.72718 | 100.30127 | 9009 ft | 290 kts | 168° |
| 2026-05-08 07:52 | 25.71602 | 100.30389 | 8672 ft | 279 kts | 169° |
| 2026-05-08 07:52 | 25.69788 | 100.30799 | 8183 ft | 251 kts | 169° |
| 2026-05-08 07:53 | 25.68172 | 100.31158 | 7854 ft | 216 kts | 169° |
| 2026-05-08 07:53 | 25.66767 | 100.31481 | 7227 ft | 203 kts | 168° |
| 2026-05-08 07:53 | 25.65495 | 100.31768 | 7090 ft | 168 kts | 168° |
| 2026-05-08 07:53 | 25.64651 | 100.31953 | 7088 ft | 82 kts | 167° |
| 2026-05-08 07:54 | 25.64258 | 100.32038 | 7088 ft | 50 kts | 184° |
| 2026-05-08 07:54 | 25.63952 | 100.32121 | 7087 ft | 36 kts | 158° |
| 2026-05-08 07:54 | 25.63876 | 100.32141 | 7087 ft | 7 kts | 275° |